sensor_id;sensor_type;location;lat;lon;timestamp;temperature;humidity
16118;DHT22;8163;50.118;5.342;2023-08-24T00:01:53;22.90;50.80
16118;DHT22;8163;50.118;5.342;2023-08-24T00:04:20;22.90;50.70
16118;DHT22;8163;50.118;5.342;2023-08-24T00:06:47;22.80;50.70
16118;DHT22;8163;50.118;5.342;2023-08-24T00:09:14;22.80;50.70
16118;DHT22;8163;50.118;5.342;2023-08-24T00:11:43;22.80;50.80
16118;DHT22;8163;50.118;5.342;2023-08-24T00:14:23;22.80;51.00
16118;DHT22;8163;50.118;5.342;2023-08-24T00:16:50;22.80;51.00
16118;DHT22;8163;50.118;5.342;2023-08-24T00:19:17;22.80;51.00
16118;DHT22;8163;50.118;5.342;2023-08-24T00:21:44;22.80;51.00
16118;DHT22;8163;50.118;5.342;2023-08-24T00:24:12;22.80;51.10
16118;DHT22;8163;50.118;5.342;2023-08-24T00:26:39;22.80;51.00
16118;DHT22;8163;50.118;5.342;2023-08-24T00:29:06;22.80;51.00
16118;DHT22;8163;50.118;5.342;2023-08-24T00:31:34;22.70;50.90
16118;DHT22;8163;50.118;5.342;2023-08-24T00:34:01;22.70;51.00
16118;DHT22;8163;50.118;5.342;2023-08-24T00:36:28;22.70;51.30
16118;DHT22;8163;50.118;5.342;2023-08-24T00:38:55;22.70;51.30
16118;DHT22;8163;50.118;5.342;2023-08-24T00:41:22;22.70;51.30
16118;DHT22;8163;50.118;5.342;2023-08-24T00:43:50;22.70;51.30
16118;DHT22;8163;50.118;5.342;2023-08-24T00:46:19;22.70;52.00
16118;DHT22;8163;50.118;5.342;2023-08-24T00:48:47;22.70;52.60
16118;DHT22;8163;50.118;5.342;2023-08-24T00:51:15;22.80;52.10
16118;DHT22;8163;50.118;5.342;2023-08-24T00:53:42;22.80;52.10
16118;DHT22;8163;50.118;5.342;2023-08-24T00:56:09;22.80;52.10
16118;DHT22;8163;50.118;5.342;2023-08-24T00:58:38;22.80;52.10
16118;DHT22;8163;50.118;5.342;2023-08-24T01:01:05;22.70;52.00
16118;DHT22;8163;50.118;5.342;2023-08-24T01:03:32;22.60;51.90
16118;DHT22;8163;50.118;5.342;2023-08-24T01:06:01;22.60;51.90
16118;DHT22;8163;50.118;5.342;2023-08-24T01:08:28;22.60;52.50
16118;DHT22;8163;50.118;5.342;2023-08-24T01:10:59;22.60;52.40
16118;DHT22;8163;50.118;5.342;2023-08-24T01:13:34;22.60;52.20
16118;DHT22;8163;50.118;5.342;2023-08-24T01:16:10;22.70;52.00
16118;DHT22;8163;50.118;5.342;2023-08-24T01:18:41;22.60;51.90
16118;DHT22;8163;50.118;5.342;2023-08-24T01:21:11;22.60;51.90
16118;DHT22;8163;50.118;5.342;2023-08-24T01:23:45;22.60;51.90
16118;DHT22;8163;50.118;5.342;2023-08-24T01:26:19;22.60;51.90
16118;DHT22;8163;50.118;5.342;2023-08-24T01:28:46;22.60;51.90
16118;DHT22;8163;50.118;5.342;2023-08-24T01:31:14;22.50;51.90
16118;DHT22;8163;50.118;5.342;2023-08-24T01:33:43;22.50;51.80
16118;DHT22;8163;50.118;5.342;2023-08-24T01:36:12;22.50;51.80
16118;DHT22;8163;50.118;5.342;2023-08-24T01:38:39;22.40;51.70
16118;DHT22;8163;50.118;5.342;2023-08-24T01:41:11;22.40;51.80
16118;DHT22;8163;50.118;5.342;2023-08-24T01:43:45;22.40;51.80
16118;DHT22;8163;50.118;5.342;2023-08-24T01:46:15;22.40;52.20
16118;DHT22;8163;50.118;5.342;2023-08-24T01:48:43;22.40;52.50
16118;DHT22;8163;50.118;5.342;2023-08-24T01:51:11;22.40;52.60
16118;DHT22;8163;50.118;5.342;2023-08-24T01:53:39;22.40;52.80
16118;DHT22;8163;50.118;5.342;2023-08-24T01:56:10;22.30;52.80
16118;DHT22;8163;50.118;5.342;2023-08-24T01:58:37;22.30;52.80
16118;DHT22;8163;50.118;5.342;2023-08-24T02:01:06;22.30;52.90
16118;DHT22;8163;50.118;5.342;2023-08-24T02:03:34;22.40;53.10
16118;DHT22;8163;50.118;5.342;2023-08-24T02:06:01;22.40;53.20
16118;DHT22;8163;50.118;5.342;2023-08-24T02:08:28;22.40;53.30
16118;DHT22;8163;50.118;5.342;2023-08-24T02:10:55;22.40;53.50
16118;DHT22;8163;50.118;5.342;2023-08-24T02:13:22;22.40;53.80
16118;DHT22;8163;50.118;5.342;2023-08-24T02:15:49;22.50;53.90
16118;DHT22;8163;50.118;5.342;2023-08-24T02:18:18;22.50;53.90
16118;DHT22;8163;50.118;5.342;2023-08-24T02:20:45;22.50;53.70
16118;DHT22;8163;50.118;5.342;2023-08-24T02:23:12;22.50;53.60
16118;DHT22;8163;50.118;5.342;2023-08-24T02:25:42;22.50;53.60
16118;DHT22;8163;50.118;5.342;2023-08-24T02:28:09;22.50;53.60
16118;DHT22;8163;50.118;5.342;2023-08-24T02:30:37;22.40;53.30
16118;DHT22;8163;50.118;5.342;2023-08-24T02:33:05;22.40;53.20
16118;DHT22;8163;50.118;5.342;2023-08-24T02:35:33;22.30;53.10
16118;DHT22;8163;50.118;5.342;2023-08-24T02:38:00;22.30;53.10
16118;DHT22;8163;50.118;5.342;2023-08-24T02:40:27;22.30;52.90
16118;DHT22;8163;50.118;5.342;2023-08-24T02:42:54;22.10;52.50
16118;DHT22;8163;50.118;5.342;2023-08-24T02:45:21;22.00;52.40
16118;DHT22;8163;50.118;5.342;2023-08-24T02:47:48;22.00;52.30
16118;DHT22;8163;50.118;5.342;2023-08-24T02:50:15;21.90;52.30
16118;DHT22;8163;50.118;5.342;2023-08-24T02:52:44;21.80;52.30
16118;DHT22;8163;50.118;5.342;2023-08-24T02:55:11;21.70;52.40
16118;DHT22;8163;50.118;5.342;2023-08-24T02:57:38;21.60;52.60
16118;DHT22;8163;50.118;5.342;2023-08-24T03:00:06;21.40;52.70
16118;DHT22;8163;50.118;5.342;2023-08-24T03:02:35;21.30;53.30
16118;DHT22;8163;50.118;5.342;2023-08-24T03:05:02;21.20;53.90
16118;DHT22;8163;50.118;5.342;2023-08-24T03:07:29;21.20;54.30
16118;DHT22;8163;50.118;5.342;2023-08-24T03:09:58;21.20;54.40
16118;DHT22;8163;50.118;5.342;2023-08-24T03:12:25;21.20;54.90
16118;DHT22;8163;50.118;5.342;2023-08-24T03:14:52;21.20;55.20
16118;DHT22;8163;50.118;5.342;2023-08-24T03:17:21;21.10;55.20
16118;DHT22;8163;50.118;5.342;2023-08-24T03:19:48;21.10;56.00
16118;DHT22;8163;50.118;5.342;2023-08-24T03:22:15;21.00;56.80
16118;DHT22;8163;50.118;5.342;2023-08-24T03:24:42;21.00;57.90
16118;DHT22;8163;50.118;5.342;2023-08-24T03:27:10;20.90;59.20
16118;DHT22;8163;50.118;5.342;2023-08-24T03:29:37;20.80;59.30
16118;DHT22;8163;50.118;5.342;2023-08-24T03:32:04;20.70;60.60
16118;DHT22;8163;50.118;5.342;2023-08-24T03:34:31;20.60;62.60
16118;DHT22;8163;50.118;5.342;2023-08-24T03:36:58;20.60;63.80
16118;DHT22;8163;50.118;5.342;2023-08-24T03:39:25;20.50;64.40
16118;DHT22;8163;50.118;5.342;2023-08-24T03:41:52;20.50;66.20
16118;DHT22;8163;50.118;5.342;2023-08-24T03:44:21;20.60;67.30
16118;DHT22;8163;50.118;5.342;2023-08-24T03:46:48;20.70;67.90
16118;DHT22;8163;50.118;5.342;2023-08-24T03:49:15;20.70;68.30
16118;DHT22;8163;50.118;5.342;2023-08-24T03:51:42;20.70;68.70
16118;DHT22;8163;50.118;5.342;2023-08-24T03:54:09;20.70;69.10
16118;DHT22;8163;50.118;5.342;2023-08-24T03:56:36;20.60;70.10
16118;DHT22;8163;50.118;5.342;2023-08-24T03:59:03;20.30;72.60
16118;DHT22;8163;50.118;5.342;2023-08-24T04:01:31;20.20;76.50
16118;DHT22;8163;50.118;5.342;2023-08-24T04:03:58;20.20;79.80
16118;DHT22;8163;50.118;5.342;2023-08-24T04:06:26;20.30;82.30
16118;DHT22;8163;50.118;5.342;2023-08-24T04:08:53;20.30;90.50
16118;DHT22;8163;50.118;5.342;2023-08-24T04:11:20;20.30;99.90
16118;DHT22;8163;50.118;5.342;2023-08-24T04:13:47;20.20;99.90
16118;DHT22;8163;50.118;5.342;2023-08-24T04:16:14;20.10;99.90
16118;DHT22;8163;50.118;5.342;2023-08-24T04:18:42;20.10;99.90
16118;DHT22;8163;50.118;5.342;2023-08-24T04:21:09;20.00;99.90
16118;DHT22;8163;50.118;5.342;2023-08-24T04:23:36;19.80;99.90
16118;DHT22;8163;50.118;5.342;2023-08-24T04:26:03;19.60;99.90
16118;DHT22;8163;50.118;5.342;2023-08-24T04:28:31;19.50;99.90
16118;DHT22;8163;50.118;5.342;2023-08-24T04:30:58;19.60;99.90
16118;DHT22;8163;50.118;5.342;2023-08-24T04:33:25;19.60;99.90
16118;DHT22;8163;50.118;5.342;2023-08-24T04:35:54;19.50;99.90
16118;DHT22;8163;50.118;5.342;2023-08-24T04:38:21;19.60;99.90
16118;DHT22;8163;50.118;5.342;2023-08-24T04:40:52;19.60;99.90
16118;DHT22;8163;50.118;5.342;2023-08-24T04:43:23;19.70;99.90
16118;DHT22;8163;50.118;5.342;2023-08-24T04:45:51;19.70;99.90
16118;DHT22;8163;50.118;5.342;2023-08-24T04:48:19;19.80;99.90
16118;DHT22;8163;50.118;5.342;2023-08-24T04:50:47;19.70;99.90
16118;DHT22;8163;50.118;5.342;2023-08-24T04:53:17;19.70;99.90
16118;DHT22;8163;50.118;5.342;2023-08-24T04:55:45;19.70;99.90
16118;DHT22;8163;50.118;5.342;2023-08-24T04:58:13;19.70;99.90
16118;DHT22;8163;50.118;5.342;2023-08-24T05:00:40;19.70;99.90
16118;DHT22;8163;50.118;5.342;2023-08-24T05:03:08;19.80;99.90
16118;DHT22;8163;50.118;5.342;2023-08-24T05:05:35;19.60;99.90
16118;DHT22;8163;50.118;5.342;2023-08-24T05:08:04;19.70;1.00
16118;DHT22;8163;50.118;5.342;2023-08-24T05:10:37;19.70;1.00
16118;DHT22;8163;50.118;5.342;2023-08-24T05:13:04;19.80;1.00
16118;DHT22;8163;50.118;5.342;2023-08-24T05:15:31;19.80;1.00
16118;DHT22;8163;50.118;5.342;2023-08-24T05:17:58;19.90;1.00
16118;DHT22;8163;50.118;5.342;2023-08-24T05:20:26;20.00;1.00
16118;DHT22;8163;50.118;5.342;2023-08-24T05:22:53;20.10;1.00
16118;DHT22;8163;50.118;5.342;2023-08-24T05:25:23;20.20;1.00
16118;DHT22;8163;50.118;5.342;2023-08-24T05:27:51;20.30;1.00
16118;DHT22;8163;50.118;5.342;2023-08-24T05:30:18;20.30;1.00
16118;DHT22;8163;50.118;5.342;2023-08-24T05:32:45;20.40;1.00
16118;DHT22;8163;50.118;5.342;2023-08-24T05:35:12;20.40;1.00
16118;DHT22;8163;50.118;5.342;2023-08-24T05:37:39;20.40;1.00
16118;DHT22;8163;50.118;5.342;2023-08-24T05:40:07;20.40;1.00
16118;DHT22;8163;50.118;5.342;2023-08-24T05:42:34;20.60;1.00
16118;DHT22;8163;50.118;5.342;2023-08-24T05:45:04;20.70;3.10
16118;DHT22;8163;50.118;5.342;2023-08-24T05:47:31;20.80;10.50
16118;DHT22;8163;50.118;5.342;2023-08-24T05:49:58;20.90;10.70
16118;DHT22;8163;50.118;5.342;2023-08-24T05:52:26;20.90;7.50
16118;DHT22;8163;50.118;5.342;2023-08-24T05:54:53;21.00;7.30
16118;DHT22;8163;50.118;5.342;2023-08-24T05:57:20;21.20;7.60
16118;DHT22;8163;50.118;5.342;2023-08-24T05:59:47;21.70;10.70
16118;DHT22;8163;50.118;5.342;2023-08-24T06:02:15;23.00;8.60
16118;DHT22;8163;50.118;5.342;2023-08-24T06:04:42;22.80;1.50
16118;DHT22;8163;50.118;5.342;2023-08-24T06:07:09;23.50;1.00
16118;DHT22;8163;50.118;5.342;2023-08-24T06:09:36;24.00;1.00
16118;DHT22;8163;50.118;5.342;2023-08-24T06:12:04;25.50;1.00
16118;DHT22;8163;50.118;5.342;2023-08-24T06:14:32;26.00;1.00
16118;DHT22;8163;50.118;5.342;2023-08-24T06:16:58;26.40;1.00
16118;DHT22;8163;50.118;5.342;2023-08-24T06:19:27;26.20;1.00
16118;DHT22;8163;50.118;5.342;2023-08-24T06:21:54;25.80;1.00
16118;DHT22;8163;50.118;5.342;2023-08-24T06:24:21;26.60;1.00
16118;DHT22;8163;50.118;5.342;2023-08-24T06:26:48;26.60;1.00
16118;DHT22;8163;50.118;5.342;2023-08-24T06:29:15;25.60;1.00
16118;DHT22;8163;50.118;5.342;2023-08-24T06:31:42;24.60;1.00
16118;DHT22;8163;50.118;5.342;2023-08-24T06:34:09;24.00;1.00
16118;DHT22;8163;50.118;5.342;2023-08-24T06:36:38;23.50;1.00
16118;DHT22;8163;50.118;5.342;2023-08-24T06:39:05;23.10;1.00
16118;DHT22;8163;50.118;5.342;2023-08-24T06:41:33;22.80;1.00
16118;DHT22;8163;50.118;5.342;2023-08-24T06:44:02;22.70;1.00
16118;DHT22;8163;50.118;5.342;2023-08-24T06:46:32;22.80;1.00
16118;DHT22;8163;50.118;5.342;2023-08-24T06:48:59;23.30;1.00
16118;DHT22;8163;50.118;5.342;2023-08-24T06:51:27;23.40;1.00
16118;DHT22;8163;50.118;5.342;2023-08-24T06:53:55;23.40;1.00
16118;DHT22;8163;50.118;5.342;2023-08-24T06:56:23;23.50;1.00
16118;DHT22;8163;50.118;5.342;2023-08-24T06:58:50;23.90;1.00
16118;DHT22;8163;50.118;5.342;2023-08-24T07:01:17;25.90;1.00
16118;DHT22;8163;50.118;5.342;2023-08-24T07:03:44;26.90;1.00
16118;DHT22;8163;50.118;5.342;2023-08-24T07:06:11;28.20;1.00
16118;DHT22;8163;50.118;5.342;2023-08-24T07:08:38;27.30;99.90
16118;DHT22;8163;50.118;5.342;2023-08-24T07:11:07;26.30;99.90
16118;DHT22;8163;50.118;5.342;2023-08-24T07:13:34;26.20;99.90
16118;DHT22;8163;50.118;5.342;2023-08-24T07:16:02;26.50;99.90
16118;DHT22;8163;50.118;5.342;2023-08-24T07:18:29;26.40;99.90
16118;DHT22;8163;50.118;5.342;2023-08-24T07:20:55;27.50;99.90
16118;DHT22;8163;50.118;5.342;2023-08-24T07:23:22;29.10;99.90
16118;DHT22;8163;50.118;5.342;2023-08-24T07:25:50;31.00;99.90
16118;DHT22;8163;50.118;5.342;2023-08-24T07:28:18;31.90;99.90
16118;DHT22;8163;50.118;5.342;2023-08-24T07:30:45;32.60;99.90
16118;DHT22;8163;50.118;5.342;2023-08-24T07:33:12;32.80;99.90
16118;DHT22;8163;50.118;5.342;2023-08-24T07:35:39;32.70;99.90
16118;DHT22;8163;50.118;5.342;2023-08-24T07:38:06;32.70;99.90
16118;DHT22;8163;50.118;5.342;2023-08-24T07:40:34;32.10;99.90
16118;DHT22;8163;50.118;5.342;2023-08-24T07:43:01;30.80;99.90
16118;DHT22;8163;50.118;5.342;2023-08-24T07:45:31;30.90;99.90
16118;DHT22;8163;50.118;5.342;2023-08-24T07:47:59;31.40;99.90
16118;DHT22;8163;50.118;5.342;2023-08-24T07:50:26;32.00;99.90
16118;DHT22;8163;50.118;5.342;2023-08-24T07:52:53;32.80;99.90
16118;DHT22;8163;50.118;5.342;2023-08-24T07:55:20;33.30;99.90
16118;DHT22;8163;50.118;5.342;2023-08-24T07:57:47;33.50;99.90
16118;DHT22;8163;50.118;5.342;2023-08-24T08:00:15;33.70;99.90
16118;DHT22;8163;50.118;5.342;2023-08-24T08:02:43;33.80;99.90
16118;DHT22;8163;50.118;5.342;2023-08-24T08:05:11;33.70;99.90
16118;DHT22;8163;50.118;5.342;2023-08-24T08:07:38;33.80;99.90
16118;DHT22;8163;50.118;5.342;2023-08-24T08:10:06;34.00;99.90
16118;DHT22;8163;50.118;5.342;2023-08-24T08:12:36;34.00;99.90
16118;DHT22;8163;50.118;5.342;2023-08-24T08:15:04;33.80;99.90
16118;DHT22;8163;50.118;5.342;2023-08-24T08:17:32;33.60;99.90
16118;DHT22;8163;50.118;5.342;2023-08-24T08:20:01;33.50;99.90
16118;DHT22;8163;50.118;5.342;2023-08-24T08:22:29;33.40;99.90
16118;DHT22;8163;50.118;5.342;2023-08-24T08:25:01;32.90;99.90
16118;DHT22;8163;50.118;5.342;2023-08-24T08:27:28;32.20;99.90
16118;DHT22;8163;50.118;5.342;2023-08-24T08:29:55;31.60;99.90
16118;DHT22;8163;50.118;5.342;2023-08-24T08:32:22;31.00;99.90
16118;DHT22;8163;50.118;5.342;2023-08-24T08:34:53;30.50;99.90
16118;DHT22;8163;50.118;5.342;2023-08-24T08:37:21;29.90;99.90
16118;DHT22;8163;50.118;5.342;2023-08-24T08:39:48;29.50;99.90
16118;DHT22;8163;50.118;5.342;2023-08-24T08:42:16;29.20;99.90
16118;DHT22;8163;50.118;5.342;2023-08-24T08:44:45;29.00;99.90
16118;DHT22;8163;50.118;5.342;2023-08-24T08:47:13;28.80;99.90
16118;DHT22;8163;50.118;5.342;2023-08-24T08:49:42;28.60;99.90
16118;DHT22;8163;50.118;5.342;2023-08-24T08:52:10;28.40;99.90
16118;DHT22;8163;50.118;5.342;2023-08-24T08:54:38;28.10;99.90
16118;DHT22;8163;50.118;5.342;2023-08-24T08:57:06;27.80;99.90
16118;DHT22;8163;50.118;5.342;2023-08-24T08:59:34;27.40;99.90
16118;DHT22;8163;50.118;5.342;2023-08-24T09:02:02;27.30;99.90
16118;DHT22;8163;50.118;5.342;2023-08-24T09:04:31;27.10;99.90
16118;DHT22;8163;50.118;5.342;2023-08-24T09:06:59;26.90;99.90
16118;DHT22;8163;50.118;5.342;2023-08-24T09:09:29;26.70;99.90
16118;DHT22;8163;50.118;5.342;2023-08-24T09:11:59;26.60;99.90
16118;DHT22;8163;50.118;5.342;2023-08-24T09:14:26;26.10;99.90
16118;DHT22;8163;50.118;5.342;2023-08-24T09:16:53;25.80;99.90
16118;DHT22;8163;50.118;5.342;2023-08-24T09:19:28;25.70;99.90
16118;DHT22;8163;50.118;5.342;2023-08-24T09:21:56;25.50;99.90
16118;DHT22;8163;50.118;5.342;2023-08-24T09:24:29;25.40;99.90
16118;DHT22;8163;50.118;5.342;2023-08-24T09:26:58;25.30;99.90
16118;DHT22;8163;50.118;5.342;2023-08-24T09:29:26;25.20;99.90
16118;DHT22;8163;50.118;5.342;2023-08-24T09:31:54;25.10;99.90
16118;DHT22;8163;50.118;5.342;2023-08-24T09:34:24;25.00;99.90
16118;DHT22;8163;50.118;5.342;2023-08-24T09:36:52;24.80;99.90
16118;DHT22;8163;50.118;5.342;2023-08-24T09:39:20;24.70;99.90
16118;DHT22;8163;50.118;5.342;2023-08-24T09:41:49;24.60;99.90
16118;DHT22;8163;50.118;5.342;2023-08-24T09:44:18;24.50;99.90
16118;DHT22;8163;50.118;5.342;2023-08-24T09:46:46;24.50;99.90
16118;DHT22;8163;50.118;5.342;2023-08-24T09:49:13;24.50;99.90
16118;DHT22;8163;50.118;5.342;2023-08-24T09:51:40;24.40;99.90
16118;DHT22;8163;50.118;5.342;2023-08-24T09:54:10;24.40;99.90
16118;DHT22;8163;50.118;5.342;2023-08-24T09:56:40;24.40;99.90
16118;DHT22;8163;50.118;5.342;2023-08-24T09:59:11;24.40;99.90
16118;DHT22;8163;50.118;5.342;2023-08-24T10:01:43;24.30;99.90
16118;DHT22;8163;50.118;5.342;2023-08-24T10:04:10;24.30;99.90
16118;DHT22;8163;50.118;5.342;2023-08-24T10:06:39;24.30;99.90
16118;DHT22;8163;50.118;5.342;2023-08-24T10:09:07;24.30;99.90
16118;DHT22;8163;50.118;5.342;2023-08-24T10:11:39;24.30;99.90
16118;DHT22;8163;50.118;5.342;2023-08-24T10:14:12;24.20;99.90
16118;DHT22;8163;50.118;5.342;2023-08-24T10:16:43;24.10;99.90
16118;DHT22;8163;50.118;5.342;2023-08-24T10:19:11;24.10;99.90
16118;DHT22;8163;50.118;5.342;2023-08-24T10:21:40;24.10;99.90
16118;DHT22;8163;50.118;5.342;2023-08-24T10:24:08;24.10;99.90
16118;DHT22;8163;50.118;5.342;2023-08-24T11:02:58;22.00;99.90
16118;DHT22;8163;50.118;5.342;2023-08-24T11:05:26;21.80;99.90
16118;DHT22;8163;50.118;5.342;2023-08-24T11:07:56;21.60;99.90
16118;DHT22;8163;50.118;5.342;2023-08-24T11:10:24;21.40;99.90
16118;DHT22;8163;50.118;5.342;2023-08-24T11:13:05;21.40;99.90
16118;DHT22;8163;50.118;5.342;2023-08-24T11:15:33;21.30;99.90
16118;DHT22;8163;50.118;5.342;2023-08-24T11:18:23;21.20;99.90
16118;DHT22;8163;50.118;5.342;2023-08-24T11:20:52;21.20;99.90
16118;DHT22;8163;50.118;5.342;2023-08-24T11:23:20;20.90;99.90
16118;DHT22;8163;50.118;5.342;2023-08-24T11:25:49;20.80;99.90
16118;DHT22;8163;50.118;5.342;2023-08-24T11:28:20;20.80;99.90
16118;DHT22;8163;50.118;5.342;2023-08-24T11:30:48;20.80;99.90
16118;DHT22;8163;50.118;5.342;2023-08-24T11:33:16;20.70;99.90
16118;DHT22;8163;50.118;5.342;2023-08-24T11:35:45;20.50;99.90
16118;DHT22;8163;50.118;5.342;2023-08-24T11:38:13;20.50;99.90
16118;DHT22;8163;50.118;5.342;2023-08-24T11:40:40;20.50;99.90
16118;DHT22;8163;50.118;5.342;2023-08-24T11:43:09;20.20;99.90
16118;DHT22;8163;50.118;5.342;2023-08-24T11:45:37;20.00;99.90
16118;DHT22;8163;50.118;5.342;2023-08-24T11:48:06;19.70;99.90
16118;DHT22;8163;50.118;5.342;2023-08-24T11:50:37;19.90;99.90
16118;DHT22;8163;50.118;5.342;2023-08-24T11:53:07;20.10;99.90
16118;DHT22;8163;50.118;5.342;2023-08-24T11:55:39;20.30;99.90
16118;DHT22;8163;50.118;5.342;2023-08-24T11:58:13;20.30;99.90
16118;DHT22;8163;50.118;5.342;2023-08-24T12:00:41;20.20;99.90
16118;DHT22;8163;50.118;5.342;2023-08-24T12:03:08;20.20;99.90
16118;DHT22;8163;50.118;5.342;2023-08-24T12:05:36;20.00;99.90
16118;DHT22;8163;50.118;5.342;2023-08-24T12:08:03;20.00;99.90
16118;DHT22;8163;50.118;5.342;2023-08-24T12:10:32;19.60;99.90
16118;DHT22;8163;50.118;5.342;2023-08-24T12:13:02;19.50;99.90
16118;DHT22;8163;50.118;5.342;2023-08-24T12:15:30;19.40;99.90
16118;DHT22;8163;50.118;5.342;2023-08-24T12:17:57;19.30;99.90
16118;DHT22;8163;50.118;5.342;2023-08-24T12:20:24;19.30;99.90
16118;DHT22;8163;50.118;5.342;2023-08-24T12:22:52;19.20;99.90
16118;DHT22;8163;50.118;5.342;2023-08-24T12:25:22;19.20;99.90
16118;DHT22;8163;50.118;5.342;2023-08-24T12:27:51;19.20;99.90
16118;DHT22;8163;50.118;5.342;2023-08-24T12:30:19;19.20;99.90
16118;DHT22;8163;50.118;5.342;2023-08-24T12:32:47;19.30;99.90
16118;DHT22;8163;50.118;5.342;2023-08-24T12:35:16;19.30;99.90
16118;DHT22;8163;50.118;5.342;2023-08-24T12:37:45;19.40;99.90
16118;DHT22;8163;50.118;5.342;2023-08-24T12:40:13;19.50;99.90
16118;DHT22;8163;50.118;5.342;2023-08-24T12:42:40;19.70;99.90
16118;DHT22;8163;50.118;5.342;2023-08-24T12:45:09;19.80;99.90
16118;DHT22;8163;50.118;5.342;2023-08-24T12:47:36;19.80;99.90
16118;DHT22;8163;50.118;5.342;2023-08-24T12:50:06;19.80;99.90
16118;DHT22;8163;50.118;5.342;2023-08-24T12:52:33;19.80;99.90
16118;DHT22;8163;50.118;5.342;2023-08-24T12:55:01;19.90;99.90
16118;DHT22;8163;50.118;5.342;2023-08-24T12:57:28;20.00;99.90
16118;DHT22;8163;50.118;5.342;2023-08-24T12:59:55;20.10;99.90
16118;DHT22;8163;50.118;5.342;2023-08-24T13:02:25;20.10;99.90
16118;DHT22;8163;50.118;5.342;2023-08-24T13:04:52;20.10;99.90
16118;DHT22;8163;50.118;5.342;2023-08-24T13:07:19;20.10;99.90
16118;DHT22;8163;50.118;5.342;2023-08-24T13:09:46;20.10;99.90
16118;DHT22;8163;50.118;5.342;2023-08-24T13:12:13;20.00;99.90
16118;DHT22;8163;50.118;5.342;2023-08-24T13:14:40;19.90;99.90
16118;DHT22;8163;50.118;5.342;2023-08-24T13:17:07;19.80;99.90
16118;DHT22;8163;50.118;5.342;2023-08-24T13:19:36;19.70;99.90
16118;DHT22;8163;50.118;5.342;2023-08-24T13:22:03;19.70;99.90
16118;DHT22;8163;50.118;5.342;2023-08-24T13:24:30;19.60;99.90
16118;DHT22;8163;50.118;5.342;2023-08-24T13:26:57;19.60;99.90
16118;DHT22;8163;50.118;5.342;2023-08-24T13:29:25;19.60;99.90
16118;DHT22;8163;50.118;5.342;2023-08-24T13:31:52;19.60;99.90
16118;DHT22;8163;50.118;5.342;2023-08-24T13:34:19;19.60;99.90
16118;DHT22;8163;50.118;5.342;2023-08-24T13:36:47;19.50;99.90
16118;DHT22;8163;50.118;5.342;2023-08-24T13:39:14;19.60;99.90
16118;DHT22;8163;50.118;5.342;2023-08-24T13:41:41;19.60;99.90
16118;DHT22;8163;50.118;5.342;2023-08-24T13:44:08;19.60;99.90
16118;DHT22;8163;50.118;5.342;2023-08-24T13:46:35;19.60;99.90
16118;DHT22;8163;50.118;5.342;2023-08-24T13:49:02;19.60;99.90
16118;DHT22;8163;50.118;5.342;2023-08-24T13:51:29;19.60;99.90
16118;DHT22;8163;50.118;5.342;2023-08-24T13:53:59;19.60;99.90
16118;DHT22;8163;50.118;5.342;2023-08-24T13:56:25;19.70;99.90
16118;DHT22;8163;50.118;5.342;2023-08-24T13:58:53;19.70;99.90
16118;DHT22;8163;50.118;5.342;2023-08-24T14:01:19;19.60;99.90
16118;DHT22;8163;50.118;5.342;2023-08-24T14:03:47;19.50;99.90
16118;DHT22;8163;50.118;5.342;2023-08-24T14:06:15;19.40;99.90
16118;DHT22;8163;50.118;5.342;2023-08-24T14:08:42;19.40;99.90
16118;DHT22;8163;50.118;5.342;2023-08-24T14:11:10;19.30;99.90
16118;DHT22;8163;50.118;5.342;2023-08-24T14:13:37;19.30;99.90
16118;DHT22;8163;50.118;5.342;2023-08-24T14:16:04;19.30;99.90
16118;DHT22;8163;50.118;5.342;2023-08-24T14:18:31;19.20;99.90
16118;DHT22;8163;50.118;5.342;2023-08-24T14:21:02;19.30;99.90
16118;DHT22;8163;50.118;5.342;2023-08-24T14:23:29;19.30;99.90
16118;DHT22;8163;50.118;5.342;2023-08-24T14:25:56;19.30;99.90
16118;DHT22;8163;50.118;5.342;2023-08-24T14:28:25;19.20;99.90
16118;DHT22;8163;50.118;5.342;2023-08-24T14:31:12;19.20;99.90
16118;DHT22;8163;50.118;5.342;2023-08-24T14:33:39;19.10;99.90
16118;DHT22;8163;50.118;5.342;2023-08-24T14:36:06;19.00;99.90
16118;DHT22;8163;50.118;5.342;2023-08-24T14:38:33;18.90;99.90
16118;DHT22;8163;50.118;5.342;2023-08-24T14:41:00;18.80;99.90
16118;DHT22;8163;50.118;5.342;2023-08-24T14:43:29;18.80;99.90
16118;DHT22;8163;50.118;5.342;2023-08-24T14:45:56;18.70;99.90
16118;DHT22;8163;50.118;5.342;2023-08-24T14:48:23;18.80;99.90
16118;DHT22;8163;50.118;5.342;2023-08-24T14:50:51;18.70;99.90
16118;DHT22;8163;50.118;5.342;2023-08-24T14:53:18;18.60;99.90
16118;DHT22;8163;50.118;5.342;2023-08-24T14:55:45;18.60;99.90
16118;DHT22;8163;50.118;5.342;2023-08-24T14:58:12;18.60;99.90
16118;DHT22;8163;50.118;5.342;2023-08-24T15:00:41;18.60;99.90
16118;DHT22;8163;50.118;5.342;2023-08-24T15:03:08;18.60;99.90
16118;DHT22;8163;50.118;5.342;2023-08-24T15:05:41;18.60;99.90
16118;DHT22;8163;50.118;5.342;2023-08-24T15:08:09;18.50;99.90
16118;DHT22;8163;50.118;5.342;2023-08-24T15:10:36;18.60;99.90
16118;DHT22;8163;50.118;5.342;2023-08-24T15:13:04;18.70;99.90
16118;DHT22;8163;50.118;5.342;2023-08-24T15:15:31;18.70;99.90
16118;DHT22;8163;50.118;5.342;2023-08-24T15:17:59;18.70;99.90
16118;DHT22;8163;50.118;5.342;2023-08-24T15:20:26;18.80;99.90
16118;DHT22;8163;50.118;5.342;2023-08-24T15:22:53;18.90;99.90
16118;DHT22;8163;50.118;5.342;2023-08-24T15:25:20;19.00;99.90
16118;DHT22;8163;50.118;5.342;2023-08-24T15:27:48;19.00;99.90
16118;DHT22;8163;50.118;5.342;2023-08-24T15:30:15;19.00;99.90
16118;DHT22;8163;50.118;5.342;2023-08-24T15:32:42;19.00;99.90
16118;DHT22;8163;50.118;5.342;2023-08-24T15:35:11;19.00;99.90
16118;DHT22;8163;50.118;5.342;2023-08-24T15:37:38;19.10;99.90
16118;DHT22;8163;50.118;5.342;2023-08-24T15:40:06;19.00;99.90
16118;DHT22;8163;50.118;5.342;2023-08-24T15:42:34;19.00;99.90
16118;DHT22;8163;50.118;5.342;2023-08-24T15:45:01;19.00;99.90
16118;DHT22;8163;50.118;5.342;2023-08-24T15:47:28;19.00;99.90
16118;DHT22;8163;50.118;5.342;2023-08-24T15:49:55;19.00;99.90
16118;DHT22;8163;50.118;5.342;2023-08-24T15:52:24;19.00;99.90
16118;DHT22;8163;50.118;5.342;2023-08-24T15:54:51;19.00;99.90
16118;DHT22;8163;50.118;5.342;2023-08-24T15:57:18;19.10;99.90
16118;DHT22;8163;50.118;5.342;2023-08-24T15:59:45;19.00;99.90
16118;DHT22;8163;50.118;5.342;2023-08-24T16:02:12;19.00;99.90
16118;DHT22;8163;50.118;5.342;2023-08-24T16:04:40;18.90;99.90
16118;DHT22;8163;50.118;5.342;2023-08-24T16:07:07;18.80;99.90
16118;DHT22;8163;50.118;5.342;2023-08-24T16:09:35;18.80;99.90
16118;DHT22;8163;50.118;5.342;2023-08-24T16:12:02;18.90;99.90
16118;DHT22;8163;50.118;5.342;2023-08-24T16:14:29;19.10;99.90
16118;DHT22;8163;50.118;5.342;2023-08-24T16:16:56;19.30;99.90
16118;DHT22;8163;50.118;5.342;2023-08-24T16:19:23;19.40;99.90
16118;DHT22;8163;50.118;5.342;2023-08-24T16:21:51;19.40;99.90
16118;DHT22;8163;50.118;5.342;2023-08-24T16:24:18;19.40;99.90
16118;DHT22;8163;50.118;5.342;2023-08-24T16:26:47;19.50;99.90
16118;DHT22;8163;50.118;5.342;2023-08-24T16:29:14;19.60;99.90